createdAt,value
2023-02-12T00:00:46.138Z,5.90
2023-02-12T00:01:48.670Z,5.89
2023-02-12T00:02:50.905Z,5.93
2023-02-12T00:03:53.356Z,5.92
2023-02-12T00:04:55.690Z,5.91
2023-02-12T00:06:01.029Z,5.83
2023-02-12T00:07:03.317Z,5.84
2023-02-12T00:08:06.029Z,5.85
2023-02-12T00:09:08.369Z,5.82
2023-02-12T00:10:11.260Z,5.78
2023-02-12T00:11:19.628Z,5.84
2023-02-12T00:12:21.844Z,5.80
2023-02-12T00:13:26.567Z,5.76
2023-02-12T00:14:28.768Z,5.77
2023-02-12T00:15:31.057Z,5.83
2023-02-12T00:16:33.287Z,5.77
2023-02-12T00:17:35.526Z,5.74
2023-02-12T00:18:37.765Z,5.70
2023-02-12T00:19:39.954Z,5.67
2023-02-12T00:20:42.269Z,5.64
2023-02-12T00:21:44.507Z,5.62
2023-02-12T00:22:46.900Z,5.56
2023-02-12T00:23:49.812Z,5.54
2023-02-12T00:24:52.092Z,5.52
2023-02-12T00:25:54.790Z,5.45
2023-02-12T00:26:57.302Z,5.38
2023-02-12T00:27:59.696Z,5.38
2023-02-12T00:29:02.175Z,5.36
2023-02-12T00:30:04.688Z,5.38
2023-02-12T00:31:08.650Z,5.34
2023-02-12T00:32:11.032Z,5.22
2023-02-12T00:33:13.237Z,5.10
2023-02-12T00:34:15.624Z,4.85
2023-02-12T00:35:18.094Z,4.85
2023-02-12T00:36:24.402Z,4.83
2023-02-12T00:37:26.669Z,4.92
2023-02-12T00:38:29.275Z,5.07
2023-02-12T00:39:31.567Z,5.13
2023-02-12T00:40:33.787Z,5.05
2023-02-12T00:41:36.094Z,4.91
2023-02-12T00:42:38.521Z,4.93
2023-02-12T00:43:41.198Z,4.95
2023-02-12T00:44:43.552Z,5.06
2023-02-12T00:45:46.609Z,5.21
2023-02-12T00:46:48.898Z,5.26
2023-02-12T00:47:52.244Z,5.31
2023-02-12T00:48:54.467Z,5.36
2023-02-12T00:49:56.848Z,5.44
2023-02-12T00:50:59.403Z,5.45
2023-02-12T00:52:04.924Z,5.43
2023-02-12T00:53:07.938Z,5.28
2023-02-12T00:54:10.228Z,5.09
2023-02-12T00:55:12.387Z,5.04
2023-02-12T00:56:14.737Z,4.87
2023-02-12T00:57:16.974Z,4.86
2023-02-12T00:58:19.243Z,4.85
2023-02-12T00:59:22.836Z,4.80
2023-02-12T01:00:25.212Z,4.84
2023-02-12T01:01:27.483Z,4.92
2023-02-12T01:02:29.845Z,4.99
2023-02-12T01:03:32.076Z,5.08
2023-02-12T01:04:35.039Z,5.20
2023-02-12T01:05:37.324Z,5.31
2023-02-12T01:06:39.516Z,5.48
2023-02-12T01:07:41.820Z,5.52
2023-02-12T01:08:44.000Z,5.60
2023-02-12T01:09:46.309Z,5.61
2023-02-12T01:10:58.208Z,5.64
2023-02-12T01:12:00.482Z,5.65
2023-02-12T01:13:02.772Z,5.65
2023-02-12T01:14:05.211Z,5.62
2023-02-12T01:15:07.882Z,5.67
2023-02-12T01:16:16.746Z,5.72
2023-02-12T01:17:19.003Z,5.69
2023-02-12T01:18:21.244Z,5.62
2023-02-12T01:19:23.581Z,5.37
2023-02-12T01:20:26.147Z,5.15
2023-02-12T01:21:32.112Z,5.14
2023-02-12T01:22:35.760Z,5.19
2023-02-12T01:23:37.971Z,5.18
2023-02-12T01:24:40.287Z,5.06
2023-02-12T01:25:42.790Z,5.11
2023-02-12T01:26:45.009Z,5.12
2023-02-12T01:27:47.288Z,5.16
2023-02-12T01:28:52.481Z,5.15
2023-02-12T01:29:54.685Z,5.18
2023-02-12T01:30:57.101Z,5.20
2023-02-12T01:31:59.451Z,5.23
2023-02-12T01:33:02.438Z,5.26
2023-02-12T01:34:06.465Z,5.21
2023-02-12T01:35:10.384Z,5.06
2023-02-12T01:36:12.715Z,4.89
2023-02-12T01:37:15.712Z,4.89
2023-02-12T01:38:17.933Z,4.89
2023-02-12T01:39:20.867Z,4.94
2023-02-12T01:40:23.025Z,4.90
2023-02-12T01:41:28.704Z,4.87
2023-02-12T01:42:34.227Z,4.83
2023-02-12T01:43:38.231Z,4.91
2023-02-12T01:44:45.548Z,4.89
2023-02-12T01:45:53.988Z,4.86
2023-02-12T01:46:59.828Z,4.95
2023-02-12T01:48:02.224Z,5.02
2023-02-12T01:49:09.393Z,4.99
2023-02-12T01:50:17.312Z,4.94
2023-02-12T01:51:22.200Z,4.98
2023-02-12T01:52:30.288Z,4.99
2023-02-12T01:53:37.965Z,5.03
2023-02-12T01:54:41.685Z,4.94
2023-02-12T01:55:44.026Z,4.98
2023-02-12T01:56:46.733Z,5.10
2023-02-12T01:57:49.286Z,5.21
2023-02-12T01:58:53.617Z,5.23
2023-02-12T01:59:58.140Z,5.20
2023-02-12T02:02:09.203Z,5.19
2023-02-12T02:03:12.635Z,5.16
2023-02-12T02:04:23.013Z,5.09
2023-02-12T02:05:35.265Z,5.09
2023-02-12T02:07:04.619Z,5.18
2023-02-12T02:08:07.028Z,5.23
2023-02-12T02:09:09.455Z,5.26
2023-02-12T02:10:11.821Z,5.26
2023-02-12T02:11:32.721Z,5.28
2023-02-12T02:12:55.565Z,5.19
2023-02-12T02:14:16.596Z,5.15
2023-02-12T02:15:18.891Z,5.16
2023-02-12T02:16:26.718Z,5.21
2023-02-12T02:17:56.779Z,5.14
2023-02-12T02:19:27.280Z,5.12
2023-02-12T02:20:35.371Z,4.90
2023-02-12T02:22:06.947Z,4.83
2023-02-12T02:23:36.719Z,5.01
2023-02-12T02:25:29.285Z,5.16
2023-02-12T02:26:49.499Z,5.27
2023-02-12T02:28:39.602Z,5.47
2023-02-12T02:30:05.709Z,5.49
2023-02-12T02:31:41.977Z,5.56
2023-02-12T02:33:04.713Z,5.47
2023-02-12T02:34:45.053Z,5.39
2023-02-12T02:35:55.955Z,5.26
2023-02-12T02:37:01.476Z,5.23
2023-02-12T02:38:11.748Z,5.36
2023-02-12T02:39:42.175Z,5.52
2023-02-12T02:40:55.233Z,5.55
2023-02-12T02:42:07.983Z,5.57
2023-02-12T02:43:33.474Z,5.56
2023-02-12T02:44:43.759Z,5.56
2023-02-12T02:45:48.287Z,5.52
2023-02-12T02:46:52.455Z,5.44
2023-02-12T02:48:08.410Z,5.36
2023-02-12T02:49:17.675Z,5.36
2023-02-12T02:50:25.915Z,5.43
2023-02-12T02:51:33.481Z,5.50
2023-02-12T02:52:59.723Z,5.54
2023-02-12T02:54:07.525Z,5.54
2023-02-12T02:55:12.911Z,5.52
2023-02-12T02:56:19.523Z,5.50
2023-02-12T02:57:35.369Z,5.50
2023-02-12T02:58:46.997Z,5.54
2023-02-12T03:00:03.936Z,5.56
2023-02-12T03:01:18.041Z,5.52
2023-02-12T03:02:24.853Z,5.48
2023-02-12T03:03:42.477Z,5.49
2023-02-12T03:04:49.712Z,5.35
2023-02-12T03:05:58.688Z,5.31
2023-02-12T03:07:11.725Z,5.38
2023-02-12T03:08:25.159Z,5.41
2023-02-12T03:09:46.069Z,5.39
2023-02-12T03:10:53.988Z,5.34
2023-02-12T03:12:00.966Z,5.26
2023-02-12T03:13:14.625Z,5.18
2023-02-12T03:14:29.205Z,5.20
2023-02-12T03:15:42.047Z,5.11
2023-02-12T03:17:08.900Z,5.04
2023-02-12T03:18:23.478Z,5.11
2023-02-12T03:19:30.205Z,5.09
2023-02-12T03:20:40.745Z,5.00
2023-02-12T03:22:06.252Z,4.93
2023-02-12T03:23:21.427Z,4.81
2023-02-12T03:24:38.807Z,4.77
2023-02-12T03:25:54.266Z,4.59
2023-02-12T03:27:02.403Z,4.53
2023-02-12T03:28:20.420Z,4.55
2023-02-12T03:29:42.563Z,4.64
2023-02-12T03:30:53.606Z,4.68
2023-02-12T03:32:31.067Z,4.69
2023-02-12T03:33:41.627Z,4.64
2023-02-12T03:35:11.792Z,4.59
2023-02-12T03:36:42.605Z,4.73
2023-02-12T03:38:02.495Z,4.79
2023-02-12T03:39:13.857Z,4.85
2023-02-12T03:40:22.724Z,4.82
2023-02-12T03:41:31.718Z,4.76
2023-02-12T03:42:53.840Z,4.83
2023-02-12T03:44:05.629Z,4.96
2023-02-12T03:45:14.119Z,5.05
2023-02-12T03:46:28.084Z,4.98
2023-02-12T03:47:38.977Z,4.85
2023-02-12T03:48:52.901Z,4.85
2023-02-12T03:50:19.057Z,4.81
2023-02-12T03:51:31.110Z,4.89
2023-02-12T03:52:34.096Z,4.87
2023-02-12T03:53:36.352Z,4.82
2023-02-12T03:54:38.777Z,4.93
2023-02-12T03:55:44.987Z,5.03
2023-02-12T03:57:08.699Z,5.12
2023-02-12T03:58:15.956Z,5.20
2023-02-12T03:59:27.382Z,5.20
2023-02-12T04:00:30.338Z,5.16
2023-02-12T04:01:35.254Z,5.03
2023-02-12T04:02:37.713Z,4.91
2023-02-12T04:03:41.255Z,4.82
2023-02-12T04:04:44.933Z,4.78
2023-02-12T04:05:47.083Z,4.93
2023-02-12T04:06:50.507Z,5.05
2023-02-12T04:07:55.076Z,5.15
2023-02-12T04:09:09.844Z,5.16
2023-02-12T04:10:12.945Z,5.18
2023-02-12T04:12:09.304Z,5.32
2023-02-12T04:13:21.337Z,5.37
2023-02-12T04:14:41.761Z,5.49
2023-02-12T04:15:59.814Z,5.35
2023-02-12T04:17:26.731Z,5.21
2023-02-12T04:18:29.259Z,5.12
2023-02-12T04:19:47.444Z,5.17
2023-02-12T04:20:49.609Z,5.04
2023-02-12T04:22:19.448Z,5.05
2023-02-12T04:24:00.280Z,5.19
2023-02-12T04:25:12.085Z,5.26
2023-02-12T04:26:33.869Z,5.24
2023-02-12T04:27:52.496Z,5.18
2023-02-12T04:29:39.645Z,5.19
2023-02-12T04:30:54.236Z,5.12
2023-02-12T04:32:28.461Z,5.20
2023-02-12T04:33:44.761Z,5.32
2023-02-12T04:35:02.773Z,5.38
2023-02-12T04:36:24.554Z,5.51
2023-02-12T04:37:43.644Z,5.52
2023-02-12T04:38:55.572Z,5.54
2023-02-12T04:39:59.025Z,5.55
2023-02-12T04:41:01.724Z,5.56
2023-02-12T04:42:04.348Z,5.61
2023-02-12T04:43:06.796Z,5.64
2023-02-12T04:44:23.784Z,5.63
2023-02-12T04:45:29.645Z,5.53
2023-02-12T04:46:31.909Z,5.56
2023-02-12T04:47:34.153Z,5.55
2023-02-12T04:48:50.259Z,5.56
2023-02-12T04:49:52.429Z,5.57
2023-02-12T04:50:54.672Z,5.47
2023-02-12T04:51:57.392Z,5.46
2023-02-12T04:52:59.639Z,5.52
2023-02-12T04:54:01.792Z,5.55
2023-02-12T04:55:04.269Z,5.57
2023-02-12T04:56:08.509Z,5.58
2023-02-12T04:57:10.754Z,5.59
2023-02-12T04:58:13.014Z,5.59
2023-02-12T04:59:15.977Z,5.46
2023-02-12T05:00:18.475Z,5.35
2023-02-12T05:01:20.676Z,5.21
2023-02-12T05:02:23.064Z,5.14
2023-02-12T05:03:25.300Z,5.21
2023-02-12T05:04:27.637Z,5.24
2023-02-12T05:05:29.832Z,5.26
2023-02-12T05:06:34.421Z,5.15
2023-02-12T05:07:36.760Z,5.09
2023-02-12T05:08:38.955Z,4.88
2023-02-12T05:09:41.206Z,4.98
2023-02-12T05:10:43.403Z,4.98
2023-02-12T05:11:46.096Z,4.99
2023-02-12T05:12:48.329Z,4.99
2023-02-12T05:13:51.719Z,4.93
2023-02-12T05:14:53.958Z,4.90
2023-02-12T05:15:56.437Z,4.83
2023-02-12T05:16:58.904Z,4.89
2023-02-12T05:18:01.109Z,4.86
2023-02-12T05:19:03.664Z,4.79
2023-02-12T05:20:06.420Z,4.79
2023-02-12T05:21:08.614Z,4.92
2023-02-12T05:22:10.842Z,4.91
2023-02-12T05:23:13.052Z,4.86
2023-02-12T05:24:15.271Z,4.88
2023-02-12T05:25:17.583Z,4.90
2023-02-12T05:26:21.914Z,4.90
2023-02-12T05:27:24.149Z,4.93
2023-02-12T05:28:26.784Z,4.96
2023-02-12T05:29:29.060Z,4.95
2023-02-12T05:30:31.272Z,4.97
2023-02-12T05:31:33.694Z,5.06
2023-02-12T05:32:36.074Z,5.10
2023-02-12T05:33:38.394Z,5.09
2023-02-12T05:34:40.566Z,4.98
2023-02-12T05:35:42.801Z,4.93
2023-02-12T05:36:44.973Z,4.83
2023-02-12T05:37:47.192Z,4.86
2023-02-12T05:38:50.274Z,4.88
2023-02-12T05:39:53.804Z,4.90
2023-02-12T05:41:04.295Z,4.86
2023-02-12T05:42:06.584Z,4.80
2023-02-12T05:43:08.880Z,4.70
2023-02-12T05:44:15.154Z,4.72
2023-02-12T05:45:17.391Z,4.72
2023-02-12T05:46:21.033Z,4.72
2023-02-12T05:47:23.309Z,4.70
2023-02-12T05:48:25.545Z,4.61
2023-02-12T05:49:27.800Z,4.60
2023-02-12T05:50:30.009Z,4.65
2023-02-12T05:51:35.456Z,4.77
2023-02-12T05:52:37.656Z,4.85
2023-02-12T05:53:41.032Z,4.87
2023-02-12T05:54:43.248Z,4.92
2023-02-12T05:55:45.591Z,4.94
2023-02-12T05:56:48.135Z,4.95
2023-02-12T05:57:51.032Z,4.93
2023-02-12T05:59:05.620Z,4.89
2023-02-12T06:00:09.864Z,4.92
2023-02-12T06:01:18.673Z,4.87
2023-02-12T06:02:20.905Z,4.93
2023-02-12T06:03:23.190Z,5.00
2023-02-12T06:04:28.425Z,5.13
2023-02-12T06:05:30.935Z,5.20
2023-02-12T06:06:34.242Z,5.21
2023-02-12T06:07:36.462Z,5.28
2023-02-12T06:08:39.107Z,5.25
2023-02-12T06:09:41.324Z,5.07
2023-02-12T06:10:43.599Z,4.96
2023-02-12T06:11:45.892Z,4.88
2023-02-12T06:12:48.106Z,4.81
2023-02-12T06:13:50.352Z,4.76
2023-02-12T06:14:52.552Z,4.74
2023-02-12T06:15:55.168Z,4.79
2023-02-12T06:16:57.797Z,4.76
2023-02-12T06:18:00.010Z,4.84
2023-02-12T06:19:05.274Z,4.85
2023-02-12T06:20:07.762Z,4.88
2023-02-12T06:21:09.978Z,4.96
2023-02-12T06:22:12.170Z,4.95
2023-02-12T06:23:14.360Z,5.03
2023-02-12T06:24:17.200Z,5.09
2023-02-12T06:25:19.528Z,5.10
2023-02-12T06:26:23.130Z,5.06
2023-02-12T06:27:25.350Z,5.09
2023-02-12T06:28:27.585Z,5.07
2023-02-12T06:29:29.795Z,5.05
2023-02-12T06:30:34.211Z,5.05
2023-02-12T06:31:37.528Z,5.00
2023-02-12T06:32:39.887Z,4.97
2023-02-12T06:33:42.079Z,4.83
2023-02-12T06:34:44.318Z,4.86
2023-02-12T06:35:46.617Z,4.76
2023-02-12T06:36:48.944Z,4.70
2023-02-12T06:37:51.120Z,4.66
2023-02-12T06:38:53.853Z,4.68
2023-02-12T06:39:56.119Z,4.64
2023-02-12T06:41:02.085Z,4.65
2023-02-12T06:42:04.319Z,4.76
2023-02-12T06:43:06.570Z,4.70
2023-02-12T06:44:08.805Z,4.81
2023-02-12T06:45:11.209Z,4.84
2023-02-12T06:46:13.858Z,4.90
2023-02-12T06:47:16.101Z,4.93
2023-02-12T06:48:18.343Z,4.86
2023-02-12T06:49:20.593Z,4.91
2023-02-12T06:50:22.808Z,4.77
2023-02-12T06:51:26.087Z,4.84
2023-02-12T06:52:28.284Z,4.78
2023-02-12T06:53:30.468Z,4.58
2023-02-12T06:54:32.648Z,4.49
2023-02-12T06:55:34.915Z,4.44
2023-02-12T06:56:37.127Z,4.46
2023-02-12T06:57:39.455Z,4.51
2023-02-12T06:58:43.866Z,4.48
2023-02-12T06:59:46.054Z,4.48
2023-02-12T07:00:48.290Z,4.45
2023-02-12T07:01:50.564Z,4.49
2023-02-12T07:02:54.534Z,4.46
2023-02-12T07:03:59.819Z,4.48
2023-02-12T07:05:03.468Z,4.51
2023-02-12T07:06:08.016Z,4.49
2023-02-12T07:07:10.492Z,4.49
2023-02-12T07:08:12.725Z,4.51
2023-02-12T07:09:14.966Z,4.49
2023-02-12T07:10:18.080Z,4.53
2023-02-12T07:11:24.304Z,4.61
2023-02-12T07:12:26.567Z,4.69
2023-02-12T07:13:28.822Z,4.60
2023-02-12T07:14:31.139Z,4.69
2023-02-12T07:15:33.384Z,4.69
2023-02-12T07:16:35.924Z,4.64
2023-02-12T07:17:38.556Z,4.61
2023-02-12T07:18:41.737Z,4.66
2023-02-12T07:19:44.037Z,4.67
2023-02-12T07:20:46.239Z,4.63
2023-02-12T07:21:48.552Z,4.60
2023-02-12T07:22:50.705Z,4.57
2023-02-12T07:23:53.413Z,4.55
2023-02-12T07:24:56.237Z,4.57
2023-02-12T07:26:06.876Z,4.63
2023-02-12T07:27:09.128Z,4.66
2023-02-12T07:28:11.334Z,4.67
2023-02-12T07:29:13.643Z,4.62
2023-02-12T07:30:16.029Z,4.63
2023-02-12T07:31:23.414Z,4.60
2023-02-12T07:32:25.682Z,4.68
2023-02-12T07:33:28.101Z,4.78
2023-02-12T07:34:30.369Z,4.80
2023-02-12T07:35:32.605Z,4.82
2023-02-12T07:36:35.117Z,4.82
2023-02-12T07:37:37.318Z,4.78
2023-02-12T07:38:39.749Z,4.74
2023-02-12T07:39:42.093Z,4.70
2023-02-12T07:40:44.351Z,4.78
2023-02-12T07:41:46.716Z,4.89
2023-02-12T07:42:55.105Z,4.86
2023-02-12T07:44:00.048Z,4.87
2023-02-12T07:45:02.268Z,4.87
2023-02-12T07:46:17.136Z,5.03
2023-02-12T07:47:19.408Z,5.09
2023-02-12T07:48:21.604Z,5.06
2023-02-12T07:49:23.828Z,5.08
2023-02-12T07:50:26.015Z,5.14
2023-02-12T07:51:28.388Z,5.13
2023-02-12T07:52:30.622Z,5.15
2023-02-12T07:53:33.239Z,5.14
2023-02-12T07:54:35.450Z,5.22
2023-02-12T07:55:37.662Z,5.19
2023-02-12T07:56:41.820Z,5.24
2023-02-12T07:57:44.257Z,5.23
2023-02-12T07:58:48.100Z,5.35
2023-02-12T07:59:50.364Z,5.38
2023-02-12T08:00:52.714Z,5.31
2023-02-12T08:01:56.151Z,5.29
2023-02-12T08:02:58.412Z,5.28
2023-02-12T08:04:06.279Z,5.27
2023-02-12T08:05:08.584Z,5.30
2023-02-12T08:06:32.324Z,5.30
2023-02-12T08:07:34.615Z,5.29
2023-02-12T08:08:38.789Z,5.24
2023-02-12T08:09:41.101Z,5.33
2023-02-12T08:10:43.449Z,5.37
2023-02-12T08:11:46.363Z,5.38
2023-02-12T08:12:48.585Z,5.31
2023-02-12T08:13:51.312Z,5.33
2023-02-12T08:14:54.296Z,5.44
2023-02-12T08:16:11.260Z,5.55
2023-02-12T08:17:13.501Z,5.58
2023-02-12T08:18:15.720Z,5.67
2023-02-12T08:19:22.511Z,5.67
2023-02-12T08:20:27.216Z,5.77
2023-02-12T08:21:29.530Z,5.98
2023-02-12T08:22:31.806Z,6.12
2023-02-12T08:23:34.393Z,6.13
2023-02-12T08:24:36.577Z,6.10
2023-02-12T08:25:38.748Z,6.05
2023-02-12T08:26:41.049Z,6.00
2023-02-12T08:27:43.271Z,6.01
2023-02-12T08:28:50.809Z,6.17
2023-02-12T08:29:53.017Z,6.24
2023-02-12T08:31:00.378Z,6.05
2023-02-12T08:32:03.881Z,6.05
2023-02-12T08:33:06.189Z,6.17
2023-02-12T08:34:20.243Z,6.20
2023-02-12T08:35:22.427Z,6.41
2023-02-12T08:36:38.692Z,6.42
2023-02-12T08:37:40.897Z,6.32
2023-02-12T08:38:44.506Z,6.39
2023-02-12T08:39:48.766Z,6.41
2023-02-12T08:40:51.049Z,6.29
2023-02-12T08:41:59.904Z,6.31
2023-02-12T08:43:02.121Z,6.43
2023-02-12T08:44:05.265Z,6.34
2023-02-12T08:45:08.003Z,6.28
2023-02-12T08:46:19.949Z,6.26
2023-02-12T08:47:22.975Z,6.37
2023-02-12T08:48:25.188Z,6.50
2023-02-12T08:49:29.979Z,6.59
2023-02-12T08:50:32.136Z,6.79
2023-02-12T08:51:36.068Z,6.78
2023-02-12T08:52:38.283Z,6.50
2023-02-12T08:53:43.014Z,6.51
2023-02-12T08:54:45.178Z,6.59
2023-02-12T08:55:50.331Z,6.53
2023-02-12T08:57:00.451Z,6.52
2023-02-12T08:58:03.675Z,6.48
2023-02-12T08:59:07.326Z,6.35
2023-02-12T09:00:10.274Z,6.33
2023-02-12T09:01:16.309Z,6.41
2023-02-12T09:02:18.600Z,6.48
2023-02-12T09:03:21.102Z,6.48
2023-02-12T09:04:26.256Z,6.50
2023-02-12T09:05:28.479Z,6.70
2023-02-12T09:06:33.184Z,6.73
2023-02-12T09:07:35.604Z,6.72
2023-02-12T09:08:39.075Z,6.80
2023-02-12T09:09:41.260Z,6.84
2023-02-12T09:10:44.515Z,6.86
2023-02-12T09:11:47.415Z,6.73
2023-02-12T09:12:49.672Z,6.79
2023-02-12T09:13:52.943Z,6.75
2023-02-12T09:14:55.164Z,6.85
2023-02-12T09:15:57.866Z,6.84
2023-02-12T09:17:00.342Z,6.93
2023-02-12T09:18:04.088Z,6.97
2023-02-12T09:19:07.147Z,6.84
2023-02-12T09:20:10.129Z,6.79
2023-02-12T09:21:15.859Z,6.73
2023-02-12T09:22:18.109Z,6.84
2023-02-12T09:23:20.348Z,6.96
2023-02-12T09:24:22.675Z,7.17
2023-02-12T09:25:25.131Z,7.19
2023-02-12T09:26:27.334Z,7.23
2023-02-12T09:27:31.319Z,7.24
2023-02-12T09:28:34.409Z,7.09
2023-02-12T09:29:36.757Z,7.07
2023-02-12T09:30:39.990Z,7.19
2023-02-12T09:31:42.272Z,7.22
2023-02-12T09:32:44.660Z,7.31
2023-02-12T09:33:49.404Z,7.33
2023-02-12T09:34:53.721Z,7.47
2023-02-12T09:35:56.227Z,7.66
2023-02-12T09:36:58.668Z,7.57
2023-02-12T09:38:00.914Z,7.57
2023-02-12T09:39:05.447Z,7.39
2023-02-12T09:40:08.584Z,7.41
2023-02-12T09:41:59.808Z,7.43
2023-02-12T09:43:18.476Z,7.47
2023-02-12T09:44:44.953Z,7.36
2023-02-12T09:46:04.706Z,7.24
2023-02-12T09:47:26.626Z,7.36
2023-02-12T09:48:44.060Z,7.40
2023-02-12T09:50:23.591Z,7.11
2023-02-12T09:51:28.716Z,7.14
2023-02-12T09:52:30.968Z,7.05
2023-02-12T09:53:37.374Z,6.94
2023-02-12T09:54:40.223Z,6.78
2023-02-12T09:55:42.738Z,6.81
2023-02-12T09:56:49.832Z,6.78
2023-02-12T09:57:54.511Z,6.81
2023-02-12T09:59:00.345Z,6.81
2023-02-12T10:00:07.414Z,6.81
2023-02-12T10:01:15.007Z,6.79
2023-02-12T10:02:19.809Z,6.79
2023-02-12T10:03:22.263Z,6.74
2023-02-12T10:04:27.273Z,6.86
2023-02-12T10:05:38.546Z,7.01
2023-02-12T10:07:04.697Z,7.11
2023-02-12T10:08:35.880Z,7.30
2023-02-12T10:09:49.935Z,7.41
2023-02-12T10:11:10.788Z,7.16
2023-02-12T10:12:26.679Z,7.23
2023-02-12T10:13:42.020Z,7.25
2023-02-12T10:14:51.929Z,7.24
2023-02-12T10:16:26.290Z,7.15
2023-02-12T10:17:56.052Z,7.13
2023-02-12T10:19:25.990Z,7.34
2023-02-12T10:20:41.496Z,7.25
2023-02-12T10:22:04.156Z,7.12
2023-02-12T10:23:34.890Z,7.06
2023-02-12T10:24:56.796Z,7.08
2023-02-12T10:26:22.699Z,7.03
2023-02-12T10:27:39.216Z,6.99
2023-02-12T10:28:42.880Z,7.03
2023-02-12T10:29:47.232Z,7.04
2023-02-12T10:30:56.744Z,7.11
2023-02-12T10:32:07.382Z,7.17
2023-02-12T10:33:19.412Z,7.12
2023-02-12T10:34:25.435Z,6.93
2023-02-12T10:35:27.732Z,6.87
2023-02-12T10:36:49.972Z,6.96
2023-02-12T10:38:02.689Z,7.26
2023-02-12T10:39:10.560Z,7.26
2023-02-12T10:40:29.882Z,7.05
2023-02-12T10:41:36.668Z,7.12
2023-02-12T10:42:42.420Z,7.12
2023-02-12T10:43:44.739Z,7.11
2023-02-12T10:44:47.227Z,7.00
2023-02-12T10:45:50.482Z,7.08
2023-02-12T10:46:52.893Z,7.18
2023-02-12T10:48:21.170Z,7.17
2023-02-12T10:49:23.476Z,7.16
2023-02-12T10:50:45.559Z,7.11
2023-02-12T10:51:53.396Z,7.18
2023-02-12T10:53:00.751Z,7.18
2023-02-12T10:54:44.502Z,7.29
2023-02-12T10:55:46.755Z,7.17
2023-02-12T10:56:49.358Z,7.19
2023-02-12T10:57:52.096Z,7.24
2023-02-12T10:58:59.699Z,7.44
2023-02-12T11:00:26.295Z,7.39
2023-02-12T11:01:37.959Z,7.35
2023-02-12T11:03:00.846Z,7.52
2023-02-12T11:04:20.296Z,7.71
2023-02-12T11:05:24.896Z,7.83
2023-02-12T11:06:30.489Z,7.73
2023-02-12T11:07:47.891Z,7.63
2023-02-12T11:08:50.489Z,7.64
2023-02-12T11:09:55.676Z,7.65
2023-02-12T11:11:28.453Z,7.89
2023-02-12T11:12:32.769Z,7.95
2023-02-12T11:13:36.817Z,8.01
2023-02-12T11:14:39.233Z,8.06
2023-02-12T11:15:49.318Z,7.91
2023-02-12T11:16:54.919Z,7.92
2023-02-12T11:18:05.303Z,7.95
2023-02-12T11:19:19.599Z,7.99
2023-02-12T11:20:23.110Z,7.92
2023-02-12T11:21:25.349Z,7.83
2023-02-12T11:22:27.600Z,7.80
2023-02-12T11:23:32.463Z,7.85
2023-02-12T11:24:36.791Z,8.05
2023-02-12T11:25:56.295Z,8.23
2023-02-12T11:27:31.198Z,8.17
2023-02-12T11:28:36.094Z,8.03
2023-02-12T11:29:38.545Z,8.02
2023-02-12T11:31:01.976Z,8.09
2023-02-12T11:32:11.762Z,7.92
2023-02-12T11:33:22.630Z,7.89
2023-02-12T11:34:24.828Z,7.87
2023-02-12T11:35:28.353Z,8.03
2023-02-12T11:36:33.373Z,8.10
2023-02-12T11:37:40.802Z,8.29
2023-02-12T11:38:52.888Z,8.43
2023-02-12T11:39:55.143Z,8.48
2023-02-12T11:41:00.730Z,8.55
2023-02-12T11:42:15.249Z,8.50
2023-02-12T11:43:19.298Z,8.42
2023-02-12T11:44:27.703Z,8.26
2023-02-12T11:45:37.815Z,8.33
2023-02-12T11:46:47.882Z,8.31
2023-02-12T11:47:50.683Z,8.46
2023-02-12T11:48:55.806Z,8.49
2023-02-12T11:50:15.555Z,8.32
2023-02-12T11:51:22.267Z,8.37
2023-02-12T11:52:28.429Z,8.55
2023-02-12T11:53:37.294Z,8.52
2023-02-12T11:54:47.851Z,8.46
2023-02-12T11:56:03.427Z,8.27
2023-02-12T11:57:05.918Z,8.25
2023-02-12T11:58:22.606Z,8.41
2023-02-12T11:59:31.052Z,8.60
2023-02-12T12:00:41.278Z,8.57
2023-02-12T12:01:44.229Z,8.67
2023-02-12T12:02:57.258Z,8.71
2023-02-12T12:04:14.164Z,8.65
2023-02-12T12:05:20.714Z,8.70
2023-02-12T12:06:29.659Z,8.75
2023-02-12T12:07:36.753Z,8.64
2023-02-12T12:08:53.931Z,8.73
2023-02-12T12:10:03.870Z,8.70
2023-02-12T12:11:13.221Z,8.65
2023-02-12T12:12:30.002Z,8.84
2023-02-12T12:13:38.949Z,8.80
2023-02-12T12:15:08.842Z,8.78
2023-02-12T12:16:36.268Z,8.72
2023-02-12T12:18:09.550Z,8.59
2023-02-12T12:19:52.388Z,8.78
2023-02-12T12:21:01.091Z,8.95
2023-02-12T12:22:54.412Z,8.95
2023-02-12T12:24:34.755Z,9.17
2023-02-12T12:25:49.257Z,9.12
2023-02-12T12:27:03.119Z,8.93
2023-02-12T12:28:21.028Z,8.65
2023-02-12T12:29:32.174Z,8.71
2023-02-12T12:30:49.776Z,8.95
2023-02-12T12:32:04.778Z,8.95
2023-02-12T12:33:16.715Z,8.99
2023-02-12T12:34:21.812Z,8.95
2023-02-12T12:35:49.913Z,8.96
2023-02-12T12:37:12.570Z,8.66
2023-02-12T12:38:33.709Z,8.75
2023-02-12T12:39:54.154Z,8.65
2023-02-12T12:41:27.762Z,8.59
2023-02-12T12:42:38.822Z,8.45
2023-02-12T12:43:59.743Z,8.45
2023-02-12T12:45:23.891Z,8.49
2023-02-12T12:46:28.670Z,8.54
2023-02-12T12:47:58.518Z,8.43
2023-02-12T12:49:19.568Z,8.41
2023-02-12T12:50:48.688Z,8.46
2023-02-12T12:52:02.854Z,8.58
2023-02-12T12:53:44.362Z,8.91
2023-02-12T12:55:13.389Z,8.91
2023-02-12T12:56:42.363Z,8.49
2023-02-12T12:58:02.674Z,8.41
2023-02-12T12:59:30.628Z,8.65
2023-02-12T13:00:51.512Z,8.78
2023-02-12T13:02:18.452Z,8.54
2023-02-12T13:03:33.228Z,8.71
2023-02-12T13:04:55.721Z,8.65
2023-02-12T13:06:29.339Z,8.62
2023-02-12T13:07:37.375Z,8.82
2023-02-12T13:08:46.577Z,8.79
2023-02-12T13:10:06.870Z,8.99
2023-02-12T13:11:45.682Z,8.70
2023-02-12T13:13:16.789Z,8.74
2023-02-12T13:14:43.713Z,8.73
2023-02-12T13:16:05.422Z,8.78
2023-02-12T13:17:22.855Z,8.71
2023-02-12T13:18:32.693Z,8.64
2023-02-12T13:19:58.275Z,8.80
2023-02-12T13:21:37.305Z,8.86
2023-02-12T13:22:55.944Z,9.18
2023-02-12T13:24:21.231Z,9.24
2023-02-12T13:25:43.206Z,9.17
2023-02-12T13:27:12.211Z,9.06
2023-02-12T13:28:38.768Z,9.26
2023-02-12T13:29:52.624Z,9.35
2023-02-12T13:30:56.361Z,9.28
2023-02-12T13:32:05.314Z,9.23
2023-02-12T13:33:33.289Z,9.23
2023-02-12T13:34:37.652Z,9.15
2023-02-12T13:35:44.974Z,9.11
2023-02-12T13:36:49.599Z,9.04
2023-02-12T13:37:54.640Z,9.22
2023-02-12T13:39:10.673Z,9.30
2023-02-12T13:40:19.216Z,9.05
2023-02-12T13:41:21.712Z,9.14
2023-02-12T13:42:46.987Z,9.32
2023-02-12T13:44:31.687Z,9.24
2023-02-12T13:45:33.858Z,9.08
2023-02-12T13:46:50.798Z,9.02
2023-02-12T13:48:30.733Z,9.13
2023-02-12T13:50:32.498Z,9.22
2023-02-12T13:51:49.888Z,9.27
2023-02-12T13:53:22.306Z,9.40
2023-02-12T13:54:38.868Z,9.41
2023-02-12T13:56:02.193Z,9.55
2023-02-12T13:57:12.861Z,9.74
2023-02-12T13:58:42.474Z,9.81
2023-02-12T13:59:45.448Z,9.91
2023-02-12T14:00:47.599Z,9.87
2023-02-12T14:01:50.887Z,9.73
2023-02-12T14:02:53.507Z,9.52
2023-02-12T14:03:55.685Z,9.40
2023-02-12T14:05:01.278Z,9.43
2023-02-12T14:06:20.318Z,9.26
2023-02-12T14:07:23.158Z,9.34
2023-02-12T14:08:40.882Z,9.38
2023-02-12T14:10:01.261Z,9.56
2023-02-12T14:11:16.283Z,9.60
2023-02-12T14:12:24.148Z,9.61
2023-02-12T14:13:28.725Z,9.46
2023-02-12T14:14:35.322Z,9.53
2023-02-12T14:15:44.549Z,9.67
2023-02-12T14:16:46.835Z,9.54
2023-02-12T14:18:01.920Z,9.51
2023-02-12T14:19:41.564Z,9.41
2023-02-12T14:20:43.968Z,9.57
2023-02-12T14:21:46.196Z,9.63
2023-02-12T14:22:48.451Z,9.67
2023-02-12T14:23:51.850Z,9.77
2023-02-12T14:24:56.192Z,9.82
2023-02-12T14:26:02.483Z,9.88
2023-02-12T14:27:17.386Z,9.85
2023-02-12T14:28:26.167Z,9.78
2023-02-12T14:29:28.739Z,9.89
2023-02-12T14:30:34.565Z,9.93
2023-02-12T14:31:38.633Z,9.89
2023-02-12T14:32:49.864Z,9.98
2023-02-12T14:34:16.521Z,9.86
2023-02-12T14:35:34.873Z,9.91
2023-02-12T14:36:43.766Z,9.70
2023-02-12T14:37:45.997Z,9.69
2023-02-12T14:38:48.194Z,9.75
2023-02-12T14:39:51.237Z,9.90
2023-02-12T14:40:54.106Z,9.90
2023-02-12T14:42:16.155Z,9.86
2023-02-12T14:43:54.642Z,9.81
2023-02-12T14:44:58.156Z,9.71
2023-02-12T14:46:22.353Z,9.80
2023-02-12T14:47:30.392Z,9.82
2023-02-12T14:48:53.255Z,9.74
2023-02-12T14:50:01.282Z,9.85
2023-02-12T14:51:04.545Z,9.99
2023-02-12T14:52:09.443Z,9.99
2023-02-12T14:53:31.467Z,10.02
2023-02-12T14:54:45.393Z,9.99
2023-02-12T14:55:48.220Z,9.81
2023-02-12T14:56:51.892Z,10.01
2023-02-12T14:58:00.964Z,9.88
2023-02-12T14:59:04.061Z,9.65
2023-02-12T15:00:18.641Z,9.71
2023-02-12T15:01:33.834Z,9.68
2023-02-12T15:02:37.056Z,9.63
2023-02-12T15:03:50.644Z,9.70
2023-02-12T15:04:56.406Z,9.67
2023-02-12T15:06:17.128Z,9.78
2023-02-12T15:07:35.654Z,9.82
2023-02-12T15:08:47.346Z,9.82
2023-02-12T15:10:00.549Z,9.67
2023-02-12T15:11:25.960Z,9.73
2023-02-12T15:12:47.274Z,9.76
2023-02-12T15:14:00.594Z,9.82
2023-02-12T15:15:41.652Z,9.57
2023-02-12T15:17:05.804Z,9.56
2023-02-12T15:18:35.856Z,9.64
2023-02-12T15:19:57.374Z,9.66
2023-02-12T15:21:05.829Z,9.64
2023-02-12T15:22:27.463Z,9.61